Time;durP1;ratioP1;P1;durP2;ratioP2;P2;SDS_P1;SDS_P2;PMS_P1;PMS_P2;Temp;Humidity;BMP_temperature;BMP_pressure;BME280_temperature;BME280_humidity;BME280_pressure;Samples;Min_cycle;Max_cycle;Signal;HPM_P1;HPM_P2
2022/03/22 04:57:32;;;;;;;14.05;9.13;;;;;;;3.78;40.71;102602.69;5605165;31;80910;-57
2022/03/22 05:00:35;;;;;;;17.08;10.07;;;;;;;3.78;40.71;102602.69;5583370;31;34097;-55
2022/03/22 05:03:37;;;;;;;20.80;11.05;;;;;;;3.24;41.46;102604.44;5582967;31;34306;-55
2022/03/22 05:06:40;;;;;;;19.20;10.73;;;;;;;3.30;41.21;102611.69;5588007;31;33936;-55
2022/03/22 05:09:42;;;;;;;14.57;10.48;;;;;;;3.32;41.48;102608.06;5598365;31;33660;-54
2022/03/22 05:12:44;;;;;;;24.00;13.20;;;;;;;3.37;41.41;102608.34;5583454;31;34499;-55
2022/03/22 05:15:47;;;;;;;17.37;10.75;;;;;;;3.47;40.95;102614.22;5583092;31;33599;-55
2022/03/22 05:18:51;;;;;;;16.58;10.88;;;;;;;3.34;41.41;102614.81;5580872;31;34012;-55
2022/03/22 05:21:53;;;;;;;16.40;10.50;;;;;;;3.43;41.48;102612.94;5583585;31;33560;-54
2022/03/22 05:24:55;;;;;;;17.77;11.12;;;;;;;3.41;41.80;102617.56;5585912;31;34038;-55
2022/03/22 05:28:02;;;;;;;17.02;10.30;;;;;;;3.63;41.08;102614.06;5581278;31;34648;-55
2022/03/22 05:31:05;;;;;;;20.25;11.50;;;;;;;3.72;40.81;102613.00;5570734;31;33734;-55
2022/03/22 05:34:07;;;;;;;19.20;11.38;;;;;;;3.72;40.72;102613.00;5583458;31;33718;-55
2022/03/22 05:37:10;;;;;;;21.65;11.48;;;;;;;3.73;40.84;102609.34;5596387;31;33571;-55
2022/03/22 05:40:12;;;;;;;17.27;10.98;;;;;;;3.85;40.92;102615.06;5583279;31;33604;-55
2022/03/22 05:43:14;;;;;;;19.27;11.48;;;;;;;3.99;40.11;102611.59;5579979;31;33648;-55
2022/03/22 05:46:17;;;;;;;22.83;11.63;;;;;;;4.15;40.14;102621.22;5599650;31;33329;-55
2022/03/22 05:49:19;;;;;;;21.42;11.75;;;;;;;4.27;40.74;102621.56;5600419;31;33785;-55
2022/03/22 05:52:21;;;;;;;22.85;14.45;;;;;;;4.33;39.45;102620.03;5582598;31;33692;-55
2022/03/22 05:55:24;;;;;;;22.10;11.88;;;;;;;4.44;39.91;102617.75;5579835;32;33240;-55
2022/03/22 05:58:26;;;;;;;27.27;12.98;;;;;;;4.64;39.15;102620.66;5580102;32;34055;-55
2022/03/22 06:01:29;;;;;;;26.73;12.20;;;;;;;4.65;39.54;102629.44;5584932;31;33725;-54
2022/03/22 06:04:32;;;;;;;21.62;12.13;;;;;;;4.75;39.91;102627.31;5582139;32;34291;-55
2022/03/22 06:07:38;;;;;;;20.08;12.18;;;;;;;4.92;39.86;102628.72;5572203;31;33217;-54
2022/03/22 06:10:40;;;;;;;21.05;11.48;;;;;;;5.03;39.72;102631.91;5569095;31;33687;-54
2022/03/22 06:13:43;;;;;;;21.05;12.57;;;;;;;5.12;39.70;102631.59;5589347;31;34282;-54
2022/03/22 06:16:45;;;;;;;17.58;12.13;;;;;;;5.36;38.12;102635.75;5587014;31;33608;-55
2022/03/22 06:19:47;;;;;;;23.77;12.98;;;;;;;5.54;38.36;102634.47;5569362;31;34292;-54
2022/03/22 06:22:50;;;;;;;24.40;12.88;;;;;;;5.68;38.68;102638.91;5568633;32;33576;-55
2022/03/22 06:25:52;;;;;;;21.62;13.88;;;;;;;5.78;38.29;102631.41;5574232;31;33853;-55
2022/03/22 06:28:55;;;;;;;26.33;13.40;;;;;;;5.96;37.51;102638.09;5568683;31;33574;-55
2022/03/22 06:31:57;;;;;;;23.10;13.35;;;;;;;5.96;37.38;102638.09;5583659;31;34263;-55
2022/03/22 06:35:00;;;;;;;22.37;13.30;;;;;;;6.04;37.54;102644.13;5575759;31;34309;-55
2022/03/22 06:38:02;;;;;;;25.73;13.55;;;;;;;6.26;37.40;102636.91;5568746;32;33263;-55
2022/03/22 06:41:05;;;;;;;22.40;13.70;;;;;;;6.38;37.63;102645.12;5568707;31;34320;-55
2022/03/22 06:44:07;;;;;;;23.50;14.60;;;;;;;6.55;37.78;102642.97;5568873;32;34233;-54
2022/03/22 06:47:09;;;;;;;27.17;14.60;;;;;;;6.86;36.42;102641.69;5568221;32;33920;-55
2022/03/22 06:50:14;;;;;;;24.73;14.45;;;;;;;6.89;36.12;102643.94;5569844;31;33872;-54
2022/03/22 06:53:17;;;;;;;26.42;14.77;;;;;;;6.92;36.75;102649.72;5565546;32;34322;-55
2022/03/22 06:56:20;;;;;;;29.65;15.38;;;;;;;7.09;36.07;102644.84;5567913;32;33836;-54
2022/03/22 06:59:22;;;;;;;22.90;14.15;;;;;;;7.09;36.93;102644.03;5568496;31;33702;-54
2022/03/22 07:02:24;;;;;;;25.33;14.15;;;;;;;7.22;36.08;102641.38;5560008;32;33681;-54
2022/03/22 07:05:28;;;;;;;21.62;15.00;;;;;;;7.43;35.53;102635.88;5555297;31;33675;-55
2022/03/22 07:08:30;;;;;;;22.48;14.65;;;;;;;7.59;35.97;102644.50;5587645;31;33625;-54
2022/03/22 07:11:52;;;;;;;28.60;15.90;;;;;;;7.69;35.67;102639.59;5580463;31;33751;-55
2022/03/22 07:14:54;;;;;;;33.10;15.80;;;;;;;7.86;35.18;102638.12;5586722;31;34298;-54
2022/03/22 07:17:58;;;;;;;22.73;16.02;;;;;;;8.13;37.08;102638.91;5587433;31;33742;-55
2022/03/22 07:21:04;;;;;;;29.33;16.30;;;;;;;8.51;34.03;102640.94;5566704;31;34150;-54
2022/03/22 07:24:08;;;;;;;22.83;16.00;;;;;;;8.64;34.65;102632.84;5567619;31;33691;-55
2022/03/22 07:27:10;;;;;;;27.05;16.37;;;;;;;8.87;34.00;102636.84;5568440;31;33677;-55
2022/03/22 07:30:14;;;;;;;37.92;16.83;;;;;;;9.19;33.08;102635.03;5576679;31;33550;-55
2022/03/22 07:33:16;;;;;;;32.20;15.85;;;;;;;9.46;32.69;102640.19;5564516;31;33867;-54
2022/03/22 07:36:19;;;;;;;24.52;16.52;;;;;;;9.82;29.82;102626.09;5582321;31;34763;-55
2022/03/22 07:39:41;;;;;;;20.50;15.25;;;;;;;10.13;27.54;102638.56;5567554;31;33607;-55
2022/03/22 07:42:44;;;;;;;24.15;15.18;;;;;;;10.32;26.72;102645.62;5565148;32;33625;-54
2022/03/22 07:45:46;;;;;;;19.98;14.65;;;;;;;10.37;26.81;102638.81;5566459;32;33678;-55
2022/03/22 07:48:50;;;;;;;23.67;15.85;;;;;;;10.52;26.55;102634.69;5571413;31;33399;-54
2022/03/22 07:55:13;;;;;;;19.85;14.90;;;;;;;10.65;26.25;102635.56;5567798;31;33335;-54
2022/03/22 07:58:16;;;;;;;22.45;15.23;;;;;;;10.77;26.00;102637.28;5567794;32;34263;-55
2022/03/22 08:01:18;;;;;;;22.27;15.45;;;;;;;10.95;25.62;102639.09;5562057;32;34256;-54
2022/03/22 08:04:21;;;;;;;23.75;16.60;;;;;;;11.01;26.04;102638.19;5576961;31;33818;-55
2022/03/22 08:07:23;;;;;;;24.12;15.73;;;;;;;11.09;25.96;102638.91;5581556;31;33820;-54
2022/03/22 08:10:26;;;;;;;24.20;16.75;;;;;;;11.41;25.74;102634.09;5570997;31;33210;-54
2022/03/22 08:13:29;;;;;;;23.60;17.23;;;;;;;11.50;25.46;102627.34;5566637;32;33608;-55
2022/03/22 08:16:31;;;;;;;30.35;16.95;;;;;;;11.47;25.33;102627.81;5567133;32;33571;-55
2022/03/22 08:19:33;;;;;;;29.20;17.52;;;;;;;11.53;25.34;102634.94;5571279;31;33459;-55
2022/03/22 08:22:49;;;;;;;29.05;17.65;;;;;;;11.71;25.39;102626.78;5585738;31;33229;-54
2022/03/22 08:25:51;;;;;;;33.13;18.60;;;;;;;11.85;25.11;102627.41;5585829;31;34293;-55
2022/03/22 08:28:55;;;;;;;28.95;18.65;;;;;;;11.93;24.90;102624.38;5558702;31;33605;-55
2022/03/22 08:31:57;;;;;;;26.23;18.30;;;;;;;11.99;24.35;102619.94;5567114;32;34151;-55
2022/03/22 08:35:00;;;;;;;25.42;18.70;;;;;;;12.14;24.22;102619.44;5567721;31;33180;-56
2022/03/22 08:38:02;;;;;;;30.77;19.48;;;;;;;12.12;24.15;102617.00;5566597;31;33593;-56
2022/03/22 08:41:05;;;;;;;24.60;18.10;;;;;;;12.09;24.28;102611.28;5566811;31;34053;-55
2022/03/22 08:44:07;;;;;;;25.62;18.70;;;;;;;12.04;24.31;102614.66;5571607;31;33666;-55
2022/03/22 08:47:09;;;;;;;25.33;19.23;;;;;;;12.18;24.58;102615.22;5584116;31;33556;-54
2022/03/22 08:50:14;;;;;;;27.90;20.17;;;;;;;12.33;23.91;102610.19;5551269;32;33649;-54
2022/03/22 08:53:19;;;;;;;31.05;20.02;;;;;;;12.31;23.77;102614.16;5568045;31;33625;-55
2022/03/22 08:56:25;;;;;;;28.58;18.90;;;;;;;12.21;25.50;102612.06;5584240;31;34036;-54
2022/03/22 08:59:27;;;;;;;25.27;19.12;;;;;;;12.37;24.16;102613.22;5566690;32;34411;-54
2022/03/22 09:02:30;;;;;;;30.00;19.37;;;;;;;12.47;23.91;102602.66;5566741;31;34270;-54
2022/03/22 09:08:54;;;;;;;26.92;19.37;;;;;;;12.44;23.85;102595.06;5565853;32;34186;-54
2022/03/22 09:11:56;;;;;;;25.27;19.50;;;;;;;12.67;24.03;102599.53;5566548;32;33705;-55
2022/03/22 09:14:59;;;;;;;28.90;20.85;;;;;;;12.70;23.76;102591.00;5566819;32;33705;-55
2022/03/22 09:18:01;;;;;;;28.73;19.48;;;;;;;12.76;23.71;102586.53;5564751;32;33693;-54
2022/03/22 09:21:04;;;;;;;29.08;19.92;;;;;;;12.80;23.84;102585.00;5558092;32;33248;-54
2022/03/22 09:24:07;;;;;;;27.02;20.52;;;;;;;12.84;24.18;102586.13;5566375;32;33702;-55
2022/03/22 09:27:10;;;;;;;30.98;20.25;;;;;;;12.80;23.15;102580.41;5565950;32;33795;-55
2022/03/22 09:30:13;;;;;;;28.45;19.37;;;;;;;12.89;23.39;102573.59;5565769;32;33651;-55
2022/03/22 09:33:16;;;;;;;27.73;19.37;;;;;;;12.89;23.85;102572.78;5565376;31;34293;-55
2022/03/22 09:36:18;;;;;;;26.45;20.42;;;;;;;12.93;23.52;102569.34;5566613;31;33902;-54
2022/03/22 09:39:22;;;;;;;27.02;19.10;;;;;;;13.12;23.51;102574.53;5564859;31;34194;-55
2022/03/22 09:42:24;;;;;;;25.67;18.70;;;;;;;13.20;23.49;102576.81;5567053;32;33673;-55
2022/03/22 09:45:30;;;;;;;30.98;20.20;;;;;;;13.22;23.24;102568.50;5573359;31;33737;-55
2022/03/22 09:48:33;;;;;;;29.30;20.12;;;;;;;13.33;23.53;102567.62;5574585;31;34063;-55
2022/03/22 09:51:45;;;;;;;28.23;19.60;;;;;;;13.46;23.36;102574.56;5567921;31;33567;-55
2022/03/22 09:54:47;;;;;;;33.50;19.48;;;;;;;13.44;23.14;102572.09;5564287;31;33506;-55
2022/03/22 09:57:50;;;;;;;34.58;20.48;;;;;;;13.40;23.09;102562.88;5575421;31;33866;-55
2022/03/22 10:00:52;;;;;;;26.77;18.92;;;;;;;13.62;22.82;102558.38;5571798;31;32382;-55
2022/03/22 10:04:07;;;;;;;48.47;19.87;;;;;;;13.70;22.77;102561.72;5573291;31;36093;-55
2022/03/22 10:07:19;;;;;;;32.17;19.73;;;;;;;13.73;23.08;102558.53;5573290;31;33739;-54
2022/03/22 10:10:22;;;;;;;28.85;18.77;;;;;;;13.73;22.72;102553.13;5567587;32;33644;-54
2022/03/22 10:13:25;;;;;;;35.30;19.77;;;;;;;13.78;22.50;102545.94;5568506;31;33670;-55
2022/03/22 10:16:27;;;;;;;35.00;19.35;;;;;;;13.89;23.37;102548.78;5568528;32;33747;-54
2022/03/22 10:19:29;;;;;;;25.30;18.67;;;;;;;13.92;22.51;102543.69;5564830;31;33922;-56
2022/03/22 10:22:34;;;;;;;27.23;18.87;;;;;;;14.00;22.57;102531.66;5565647;31;33647;-54
2022/03/22 10:25:41;;;;;;;22.33;16.65;;;;;;;14.06;22.12;102522.56;5567036;31;33643;-54
2022/03/22 10:28:54;;;;;;;21.98;17.23;;;;;;;14.08;21.86;102533.91;5571732;31;33753;-54
2022/03/22 10:32:03;;;;;;;35.28;18.35;;;;;;;14.21;21.59;102530.03;5572626;31;34360;-55
2022/03/22 10:35:17;;;;;;;23.67;16.40;;;;;;;14.20;22.20;102523.81;5575487;31;33313;-54
2022/03/22 10:38:23;;;;;;;22.37;15.65;;;;;;;14.27;21.56;102521.75;5570187;31;34413;-55
2022/03/22 10:41:28;;;;;;;22.20;13.70;;;;;;;14.42;21.21;102520.28;5559788;32;33715;-54
2022/03/22 10:44:34;;;;;;;20.42;13.23;;;;;;;14.49;20.53;102529.78;5571620;31;34878;-54
2022/03/22 10:47:36;;;;;;;;;;;;;;;14.43;19.65;102511.91;5563816;32;34479;-54
2022/03/22 10:50:38;;;;;;;14.18;10.68;;;;;;;14.63;20.09;102505.13;5565766;31;34046;-55
2022/03/22 10:53:41;;;;;;;15.32;10.82;;;;;;;14.61;18.86;102501.88;5567337;31;32036;-54
2022/03/22 10:56:47;;;;;;;13.45;9.70;;;;;;;14.61;19.10;102504.59;5574231;31;33826;-54
2022/03/22 10:59:52;;;;;;;17.12;10.05;;;;;;;14.72;18.52;102501.72;5588459;31;33746;-54
2022/03/22 11:02:56;;;;;;;12.80;9.18;;;;;;;14.70;18.67;102494.94;5569604;31;33618;-54
2022/03/22 11:06:02;;;;;;;15.63;9.48;;;;;;;14.72;18.18;102492.81;5568544;31;34333;-54
2022/03/22 11:09:05;;;;;;;13.77;9.07;;;;;;;14.75;18.58;102486.88;5566112;32;33374;-54
2022/03/22 11:12:08;;;;;;;13.35;8.32;;;;;;;14.89;18.35;102487.28;5573085;31;33760;-54
2022/03/22 11:15:13;;;;;;;14.63;8.98;;;;;;;14.80;18.07;102485.06;5568592;32;33824;-54
2022/03/22 11:18:18;;;;;;;13.95;9.00;;;;;;;14.85;18.60;102467.25;5568805;32;33846;-55
2022/03/22 11:21:21;;;;;;;17.15;11.20;;;;;;;14.92;17.92;102465.97;5572788;31;34329;-54
2022/03/22 11:24:25;;;;;;;13.35;10.48;;;;;;;15.13;19.18;102466.09;5566555;32;33668;-54
2022/03/22 11:27:29;;;;;;;15.40;10.48;;;;;;;15.13;18.50;102458.84;5568297;31;33376;-54
2022/03/22 11:30:33;;;;;;;17.83;12.02;;;;;;;15.08;18.33;102458.78;5574799;31;33614;-54
2022/03/22 11:37:02;;;;;;;21.48;15.23;;;;;;;15.13;20.07;102452.59;5587755;31;34330;-54
2022/03/22 11:43:43;;;;;;;21.25;15.02;;;;;;;15.20;20.06;102445.09;5588128;31;34423;-54
2022/03/22 11:46:46;;;;;;;20.23;15.18;;;;;;;15.15;20.48;102435.06;5587806;31;34071;-54
2022/03/22 11:50:03;;;;;;;22.98;15.82;;;;;;;15.19;19.93;102441.56;5570590;31;33431;-54
2022/03/22 11:53:16;;;;;;;21.10;14.93;;;;;;;15.15;19.83;102431.56;5567987;31;33643;-54
2022/03/22 11:56:26;;;;;;;20.45;13.23;;;;;;;15.22;20.41;102426.72;5565093;31;33777;-54
2022/03/22 11:59:40;;;;;;;17.42;14.18;;;;;;;15.34;20.11;102423.84;5565939;31;34337;-55
2022/03/22 12:02:47;;;;;;;16.83;12.18;;;;;;;15.49;20.96;102413.09;5566058;31;33567;-55
2022/03/22 12:05:52;;;;;;;22.77;13.77;;;;;;;15.60;20.83;102406.66;5562398;31;33578;-55
2022/03/22 12:08:54;;;;;;;18.52;13.27;;;;;;;15.61;20.17;102404.75;5568365;31;33622;-56
2022/03/22 12:11:58;;;;;;;20.20;14.13;;;;;;;15.61;20.15;102410.16;5574575;31;33749;-56
2022/03/22 12:15:03;;;;;;;21.23;12.77;;;;;;;15.63;19.72;102400.72;5564718;31;33684;-56
2022/03/22 12:18:08;;;;;;;19.37;13.00;;;;;;;15.57;19.68;102388.25;5565148;31;33495;-56
2022/03/22 12:21:21;;;;;;;18.23;13.18;;;;;;;15.50;19.83;102390.41;5568202;31;34207;-56
2022/03/22 12:24:27;;;;;;;22.00;13.68;;;;;;;15.56;20.02;102383.09;5567642;31;33591;-55
2022/03/22 12:27:34;;;;;;;25.67;14.50;;;;;;;15.70;20.22;102376.97;5576963;31;33787;-55
2022/03/22 12:30:39;;;;;;;17.10;12.40;;;;;;;15.72;19.93;102368.59;5562444;32;33625;-55
2022/03/22 12:33:42;;;;;;;19.67;12.77;;;;;;;15.71;19.94;102364.28;5566125;31;35152;-56
2022/03/22 12:36:45;;;;;;;29.85;13.62;;;;;;;15.74;19.87;102359.13;5568832;31;33637;-55
2022/03/22 12:39:48;;;;;;;20.27;12.88;;;;;;;15.74;20.28;102350.22;5573069;31;33926;-56
2022/03/22 12:43:01;;;;;;;19.73;13.10;;;;;;;15.91;20.34;102347.28;5558178;32;33307;-56
2022/03/22 12:46:04;;;;;;;17.55;12.02;;;;;;;16.04;20.50;102348.66;5560769;31;32226;-55
2022/03/22 12:49:07;;;;;;;16.15;11.32;;;;;;;16.06;21.02;102341.06;5563699;31;33854;-56
2022/03/22 12:52:10;;;;;;;15.27;11.38;;;;;;;16.07;20.46;102332.69;5557834;32;33429;-56
2022/03/22 12:55:14;;;;;;;14.27;11.20;;;;;;;16.24;21.59;102321.59;5566805;31;33613;-56
2022/03/22 12:58:25;;;;;;;17.98;11.68;;;;;;;16.32;20.39;102320.25;5581426;31;34256;-56
2022/03/22 13:01:42;;;;;;;12.93;10.95;;;;;;;16.30;20.50;102323.22;5555057;32;33045;-55
2022/03/22 13:04:48;;;;;;;14.15;10.63;;;;;;;16.32;20.37;102310.22;5550593;32;34333;-55
2022/03/22 13:07:50;;;;;;;15.05;10.25;;;;;;;16.29;20.36;102299.12;5567406;31;34140;-55
2022/03/22 13:17:53;;;;;;;18.90;11.25;;;;;;;16.44;20.58;102288.28;5507731;32;33157;-56
2022/03/22 13:21:00;;;;;;;14.57;10.65;;;;;;;16.46;19.80;102286.12;5505322;32;33996;-56
2022/03/22 13:24:08;;;;;;;14.68;10.05;;;;;;;16.53;20.26;102281.25;5566068;32;32567;-55
2022/03/22 13:27:13;;;;;;;12.83;9.50;;;;;;;16.61;20.57;102277.16;5567240;32;34342;-55
2022/03/22 13:30:18;;;;;;;13.18;9.45;;;;;;;16.59;20.33;102276.66;5569566;32;33741;-56
2022/03/22 13:33:21;;;;;;;16.00;10.48;;;;;;;16.58;20.18;102283.12;5571485;31;33530;-56
2022/03/22 13:36:24;;;;;;;11.93;9.38;;;;;;;16.62;20.27;102276.06;5584522;31;33564;-55
2022/03/22 13:39:27;;;;;;;12.13;9.60;;;;;;;16.58;20.02;102270.37;5569796;32;33666;-56
2022/03/22 13:42:29;;;;;;;15.80;10.55;;;;;;;16.61;20.45;102272.56;5576328;31;34431;-56
2022/03/22 13:45:32;;;;;;;15.85;10.70;;;;;;;16.66;19.93;102260.91;5567874;32;34439;-56
2022/03/22 13:48:43;;;;;;;15.30;9.52;;;;;;;16.73;19.98;102266.03;5565646;31;34190;-55
2022/03/22 13:51:47;;;;;;;14.38;9.15;;;;;;;16.68;19.46;102262.25;5582857;31;33696;-56
2022/03/22 13:54:53;;;;;;;13.60;9.77;;;;;;;16.71;20.08;102251.97;5567104;31;33477;-56
2022/03/22 13:58:00;;;;;;;19.95;9.07;;;;;;;16.78;19.95;102247.88;5567904;32;33794;-55
2022/03/22 14:01:22;;;;;;;13.68;9.55;;;;;;;16.83;19.58;102247.06;5569769;31;33772;-56
2022/03/22 14:04:25;;;;;;;15.90;9.73;;;;;;;16.79;19.53;102236.00;5569673;32;33780;-56
2022/03/22 14:07:28;;;;;;;12.80;8.98;;;;;;;16.92;19.69;102237.28;5573727;31;33832;-56
2022/03/22 14:10:30;;;;;;;11.93;9.05;;;;;;;16.95;19.55;102238.62;5589030;31;33729;-56
2022/03/22 14:13:32;;;;;;;13.55;8.52;;;;;;;16.96;19.36;102224.00;5589121;31;33765;-56
2022/03/22 14:16:35;;;;;;;13.45;9.02;;;;;;;17.01;19.55;102227.47;5577959;31;33662;-55
2022/03/22 14:19:37;;;;;;;14.85;9.38;;;;;;;17.16;18.74;102225.81;5566652;32;33657;-56
2022/03/22 14:22:43;;;;;;;13.35;8.57;;;;;;;17.07;18.87;102222.84;5561274;32;33726;-56
2022/03/22 14:25:45;;;;;;;14.32;8.52;;;;;;;17.09;19.46;102207.94;5567890;32;34209;-56
2022/03/22 14:28:48;;;;;;;13.60;8.50;;;;;;;17.13;18.25;102205.47;5567932;32;33177;-56
2022/03/22 14:31:52;;;;;;;11.40;7.43;;;;;;;17.16;18.70;102196.78;5559431;31;33422;-56
2022/03/22 14:38:18;;;;;;;13.70;8.20;;;;;;;17.18;18.25;102185.66;5567850;32;34321;-56
2022/03/22 14:41:26;;;;;;;10.68;7.90;;;;;;;17.18;18.59;102186.47;5567459;32;33329;-56
2022/03/22 14:44:28;;;;;;;13.02;8.70;;;;;;;17.20;18.72;102184.28;5572444;31;31949;-55
2022/03/22 14:47:33;;;;;;;11.23;7.78;;;;;;;17.30;18.27;102180.72;5580698;31;33222;-56
2022/03/22 14:50:36;;;;;;;12.88;7.65;;;;;;;17.25;18.57;102170.72;5573045;31;34200;-56
2022/03/22 15:00:21;;;;;;;22.50;9.00;;;;;;;17.37;18.69;102156.81;5574529;31;33402;-56
2022/03/22 15:03:27;;;;;;;13.20;7.87;;;;;;;17.43;18.86;102158.38;5568424;31;33682;-56
2022/03/22 15:06:31;;;;;;;15.55;8.45;;;;;;;17.43;18.57;102150.25;5568990;31;33804;-56
2022/03/22 15:09:35;;;;;;;20.00;8.23;;;;;;;17.41;18.61;102154.34;5569065;32;33928;-56
2022/03/22 15:12:38;;;;;;;9.20;7.00;;;;;;;17.38;18.85;102148.41;5568298;32;34375;-56
2022/03/22 15:15:42;;;;;;;11.20;7.70;;;;;;;17.35;18.71;102140.00;5568888;32;34293;-57
2022/03/22 15:18:44;;;;;;;9.85;6.87;;;;;;;17.41;18.64;102136.16;5568515;31;34402;-55
2022/03/22 15:21:46;;;;;;;13.80;6.82;;;;;;;17.44;18.57;102129.38;5569453;31;33274;-56
2022/03/22 15:24:49;;;;;;;11.18;7.05;;;;;;;17.42;18.34;102131.53;5568293;32;34024;-56
2022/03/22 15:27:52;;;;;;;10.50;7.32;;;;;;;17.42;18.23;102131.53;5569545;31;34071;-56
2022/03/22 15:30:55;;;;;;;10.25;6.07;;;;;;;17.52;18.01;102131.50;5566819;32;33588;-56
2022/03/22 15:33:57;;;;;;;12.90;6.72;;;;;;;17.46;17.82;102127.19;5570588;31;33686;-55
2022/03/22 15:36:59;;;;;;;10.45;6.37;;;;;;;17.44;18.05;102126.66;5576581;31;34463;-56
2022/03/22 15:40:02;;;;;;;8.38;6.32;;;;;;;17.47;17.80;102126.91;5569801;31;33786;-56
2022/03/22 15:43:07;;;;;;;10.23;7.05;;;;;;;17.41;18.10;102130.75;5568659;31;33625;-56
2022/03/22 15:46:09;;;;;;;9.68;6.12;;;;;;;17.38;18.05;102131.31;5568783;32;33735;-55
2022/03/22 15:49:12;;;;;;;12.82;6.45;;;;;;;17.49;17.50;102129.34;5570849;31;33665;-55
2022/03/22 15:52:14;;;;;;;9.38;6.05;;;;;;;17.54;18.38;102126.56;5566033;32;33343;-55
2022/03/22 15:55:16;;;;;;;9.50;6.12;;;;;;;17.43;17.50;102131.28;5568443;31;34546;-55
2022/03/22 15:58:18;;;;;;;11.12;6.82;;;;;;;17.35;17.48;102116.44;5567466;32;33510;-55
2022/03/22 16:01:22;;;;;;;10.75;6.65;;;;;;;17.36;17.56;102117.25;5569442;31;33800;-56
2022/03/22 16:04:25;;;;;;;9.38;6.40;;;;;;;17.36;17.24;102119.94;5568744;31;33632;-55
2022/03/22 16:07:27;;;;;;;8.60;6.30;;;;;;;17.43;17.15;102119.62;5564296;32;34274;-56
2022/03/22 16:10:30;;;;;;;8.95;6.65;;;;;;;17.34;17.96;102122.13;5567629;32;34441;-55
2022/03/22 16:13:32;;;;;;;13.35;6.95;;;;;;;17.33;17.43;102115.91;5567237;32;35310;-55
2022/03/22 16:16:36;;;;;;;10.68;6.25;;;;;;;17.29;17.40;102114.06;5566132;32;33672;-56
2022/03/22 16:19:39;;;;;;;11.02;7.25;;;;;;;17.24;17.50;102114.87;5566171;32;33669;-56
2022/03/22 16:22:41;;;;;;;10.40;6.60;;;;;;;17.18;17.62;102110.59;5565242;32;34962;-56
2022/03/22 16:25:46;;;;;;;10.25;6.70;;;;;;;17.25;17.51;102118.41;5567951;32;34278;-55
2022/03/22 16:28:48;;;;;;;10.40;6.80;;;;;;;17.21;17.64;102101.09;5559165;32;33674;-55
2022/03/22 16:31:53;;;;;;;12.27;7.32;;;;;;;17.14;17.88;102110.34;5549155;32;33781;-56
2022/03/22 16:38:16;;;;;;;12.27;7.45;;;;;;;16.97;18.48;102101.81;5548557;32;33315;-56
2022/03/22 16:41:18;;;;;;;12.27;7.12;;;;;;;16.95;18.37;102092.31;5552089;32;34445;-56
2022/03/22 16:44:31;;;;;;;11.18;7.12;;;;;;;16.87;19.20;102093.75;5568308;32;33608;-55
2022/03/22 16:47:34;;;;;;;14.48;7.28;;;;;;;16.80;18.94;102104.87;5567850;32;33433;-56
2022/03/22 16:50:39;;;;;;;10.50;6.78;;;;;;;16.73;19.74;102107.06;5567199;32;34372;-56
2022/03/22 16:53:42;;;;;;;11.45;7.53;;;;;;;16.63;20.00;102107.94;5568196;32;33654;-56
2022/03/22 16:56:44;;;;;;;12.43;7.93;;;;;;;16.53;20.28;102107.19;5567541;32;34060;-55
2022/03/22 16:59:46;;;;;;;12.88;7.95;;;;;;;16.40;20.66;102111.28;5568254;32;33312;-55
2022/03/22 17:02:48;;;;;;;14.25;8.40;;;;;;;16.29;20.61;102105.13;5568369;32;33836;-55
2022/03/22 17:05:51;;;;;;;16.33;9.60;;;;;;;16.15;20.89;102104.06;5568043;32;33640;-55
2022/03/22 17:08:53;;;;;;;19.08;8.80;;;;;;;16.03;21.61;102106.28;5567829;32;34313;-55
2022/03/22 17:11:56;;;;;;;19.05;9.02;;;;;;;15.90;22.30;102104.97;5567806;32;34490;-56
2022/03/22 17:14:58;;;;;;;19.23;9.50;;;;;;;15.75;22.44;102100.38;5567653;32;34344;-56
2022/03/22 17:18:02;;;;;;;14.95;9.07;;;;;;;15.57;23.14;102104.44;5568012;32;33632;-55
2022/03/22 17:21:04;;;;;;;18.00;8.38;;;;;;;15.45;23.60;102106.59;5567812;32;33738;-55
2022/03/22 17:24:07;;;;;;;16.80;8.35;;;;;;;15.30;23.73;102099.31;5567863;32;33673;-55
2022/03/22 17:27:10;;;;;;;15.55;8.32;;;;;;;15.17;24.03;102099.84;5567537;32;33768;-55
2022/03/22 17:30:12;;;;;;;17.75;10.60;;;;;;;15.11;23.85;102099.00;5567500;32;34391;-56
2022/03/22 17:33:15;;;;;;;18.17;11.63;;;;;;;15.09;24.02;102103.06;5566432;32;33650;-56
